Angle, Utah
Current Conditions -  °F | °C
As of 5:53 PM on Monday 26 Jan 2015 (Local Time) from KBCE Reporting Station
Clear Clear  
Wind Chill: 35°   Ceiling: Unl
Heat Index: 40°   Visibility: 10mi
Dew Point: 22°   Wind: 7mph
Humidity: 49%   Direction: 130°SE
Pressure: 30.3"   Gusts: NA
Location:  37.9601°N, 112.141°W
Report Text: KBCE 270053Z AUTO 13006KT 10SM CLR 04/M06 A3030 RMK AO2 SLP233 T00441056 $
Loading
Personal Weather Stations






























Interactive Weather Map New forecast layout! Learn more

10-Day Weather Forecast

Advertisements
Track Severe Weather on mobile